createdAt,value
2022-12-25T00:01:48.405Z,98965.20
2022-12-25T00:04:24.684Z,98970.40
2022-12-25T00:07:00.965Z,98977.80
2022-12-25T00:09:39.223Z,98975.20
2022-12-25T00:12:15.597Z,98984.00
2022-12-25T00:14:51.886Z,98983.00
2022-12-25T00:17:28.434Z,98977.00
2022-12-25T00:20:05.307Z,98975.60
2022-12-25T00:22:41.708Z,98979.20
2022-12-25T00:25:18.001Z,98986.20
2022-12-25T00:27:54.412Z,98983.20
2022-12-25T00:30:30.775Z,98988.40
2022-12-25T00:33:07.237Z,98994.80
2022-12-25T00:35:43.721Z,99004.40
2022-12-25T00:38:20.072Z,99007.00
2022-12-25T00:40:56.379Z,99006.40
2022-12-25T00:43:33.037Z,99002.20
2022-12-25T00:46:13.371Z,98999.80
2022-12-25T00:48:49.941Z,99008.80
2022-12-25T00:51:26.177Z,99014.60
2022-12-25T00:54:02.789Z,99019.60
2022-12-25T00:56:40.216Z,99025.40
2022-12-25T00:59:17.565Z,99024.60
2022-12-25T01:01:53.936Z,99027.80
2022-12-25T01:04:30.494Z,99032.00
2022-12-25T01:07:06.750Z,99037.60
2022-12-25T01:10:01.554Z,99039.00
2022-12-25T01:12:40.787Z,99041.40
2022-12-25T01:15:18.576Z,99042.00
2022-12-25T01:17:54.838Z,99053.60
2022-12-25T01:20:31.133Z,99066.60
2022-12-25T01:23:07.720Z,99078.60
2022-12-25T01:25:44.444Z,99080.00
2022-12-25T01:28:21.354Z,99087.80
2022-12-25T01:30:57.607Z,99093.80
2022-12-25T01:33:34.360Z,99098.80
2022-12-25T01:36:22.292Z,99092.60
2022-12-25T01:39:00.221Z,99096.00
2022-12-25T01:41:36.668Z,99089.20
2022-12-25T01:45:17.254Z,99092.40
2022-12-25T01:47:53.653Z,99089.40
2022-12-25T01:50:30.617Z,99089.20
2022-12-25T01:53:08.188Z,99087.20
2022-12-25T01:55:48.824Z,99088.00
2022-12-25T01:58:26.379Z,99091.20
2022-12-25T02:01:05.796Z,99081.00
2022-12-25T02:03:42.988Z,99074.40
2022-12-25T02:06:19.382Z,99084.00
2022-12-25T02:08:56.284Z,99085.20
2022-12-25T02:11:50.118Z,99091.80
2022-12-25T02:14:27.093Z,99094.60
2022-12-25T02:17:17.353Z,99098.20
2022-12-25T02:20:37.032Z,99096.00
2022-12-25T02:24:12.203Z,99096.60
2022-12-25T02:27:08.509Z,99103.60
2022-12-25T02:29:59.632Z,99100.40
2022-12-25T02:32:46.281Z,99110.40
2022-12-25T02:35:32.551Z,99110.60
2022-12-25T02:38:18.716Z,99114.60
2022-12-25T02:41:03.096Z,99120.00
2022-12-25T02:44:03.083Z,99125.00
2022-12-25T02:46:57.679Z,99127.80
2022-12-25T02:49:53.707Z,99128.00
2022-12-25T02:52:50.258Z,99131.80
2022-12-25T02:55:52.549Z,99135.60
2022-12-25T02:58:48.743Z,99128.60
2022-12-25T03:01:51.873Z,99131.80
2022-12-25T03:04:48.550Z,99133.20
2022-12-25T03:07:27.743Z,99135.00
2022-12-25T03:10:28.964Z,99138.80
2022-12-25T03:13:16.210Z,99132.60
2022-12-25T03:16:12.167Z,99133.40
2022-12-25T03:18:49.541Z,99133.40
2022-12-25T03:21:55.013Z,99139.40
2022-12-25T03:24:49.093Z,99135.80
2022-12-25T03:27:26.357Z,99137.80
2022-12-25T03:30:20.562Z,99145.00
2022-12-25T03:33:43.214Z,99136.20
2022-12-25T03:36:22.459Z,99146.60
2022-12-25T03:39:29.575Z,99146.60
2022-12-25T03:42:25.683Z,99138.60
2022-12-25T03:45:32.847Z,99133.40
2022-12-25T03:48:29.788Z,99134.20
2022-12-25T03:51:32.566Z,99134.80
2022-12-25T03:54:30.200Z,99138.40
2022-12-25T03:57:24.580Z,99141.80
2022-12-25T04:00:18.645Z,99135.40
2022-12-25T04:03:12.756Z,99126.20
2022-12-25T04:06:07.257Z,99135.80
2022-12-25T04:09:01.175Z,99148.00
2022-12-25T04:12:02.022Z,99153.60
2022-12-25T04:14:56.494Z,99159.20
2022-12-25T04:17:50.638Z,99160.40
2022-12-25T04:20:45.700Z,99158.20
2022-12-25T04:23:40.013Z,99167.60
2022-12-25T04:26:33.811Z,99169.20
2022-12-25T04:29:28.260Z,99168.20
2022-12-25T04:32:22.694Z,99172.80
2022-12-25T04:35:16.608Z,99167.00
2022-12-25T04:37:52.863Z,99166.60
2022-12-25T04:40:29.183Z,99165.00
2022-12-25T04:43:05.496Z,99167.40
2022-12-25T04:45:41.759Z,99168.40
2022-12-25T04:48:18.047Z,99176.40
2022-12-25T04:50:54.489Z,99185.80
2022-12-25T04:53:31.261Z,99190.40
2022-12-25T04:56:09.060Z,99184.20
2022-12-25T04:58:45.920Z,99185.60
2022-12-25T05:01:22.359Z,99189.80
2022-12-25T05:03:58.720Z,99191.40
2022-12-25T05:06:35.283Z,99194.20
2022-12-25T05:09:12.545Z,99201.20
2022-12-25T05:11:49.098Z,99205.20
2022-12-25T05:14:25.468Z,99205.20
2022-12-25T05:17:01.825Z,99197.00
2022-12-25T05:19:38.114Z,99191.40
2022-12-25T05:22:14.634Z,99182.00
2022-12-25T05:24:51.027Z,99186.60
2022-12-25T05:27:27.602Z,99193.00
2022-12-25T05:30:03.793Z,99194.20
2022-12-25T05:32:40.075Z,99193.40
2022-12-25T05:35:16.808Z,99195.20
2022-12-25T05:37:53.054Z,99197.60
2022-12-25T05:40:29.286Z,99202.20
2022-12-25T05:43:05.822Z,99208.20
2022-12-25T05:45:42.090Z,99211.80
2022-12-25T05:48:18.898Z,99212.20
2022-12-25T05:50:55.087Z,99215.40
2022-12-25T05:53:31.480Z,99221.00
2022-12-25T05:56:10.652Z,99224.00
2022-12-25T05:58:47.028Z,99231.00
2022-12-25T06:01:29.557Z,99236.00
2022-12-25T06:04:12.241Z,99239.60
2022-12-25T06:06:49.263Z,99243.00
2022-12-25T06:09:25.472Z,99245.80
2022-12-25T06:12:01.791Z,99246.80
2022-12-25T06:14:38.669Z,99244.40
2022-12-25T06:17:14.901Z,99251.40
2022-12-25T06:19:51.410Z,99255.20
2022-12-25T06:22:31.434Z,99251.80
2022-12-25T06:25:09.684Z,99260.40
2022-12-25T06:27:45.999Z,99270.40
2022-12-25T06:30:23.131Z,99266.60
2022-12-25T06:33:00.137Z,99267.80
2022-12-25T06:35:39.710Z,99263.60
2022-12-25T06:38:15.981Z,99268.20
2022-12-25T06:40:52.380Z,99270.80
2022-12-25T06:43:28.622Z,99270.40
2022-12-25T06:46:10.314Z,99268.00
2022-12-25T06:48:49.819Z,99273.00
2022-12-25T06:51:30.347Z,99281.60
2022-12-25T06:54:07.276Z,99285.20
2022-12-25T06:56:43.521Z,99286.40
2022-12-25T06:59:20.122Z,99296.20
2022-12-25T07:01:58.729Z,99309.00
2022-12-25T07:04:40.668Z,99314.80
2022-12-25T07:07:15.877Z,99324.20
2022-12-25T07:09:52.154Z,99322.20
2022-12-25T07:12:28.936Z,99324.00
2022-12-25T07:15:05.729Z,99335.80
2022-12-25T07:17:42.116Z,99345.00
2022-12-25T07:20:18.727Z,99347.40
2022-12-25T07:22:55.189Z,99344.40
2022-12-25T07:25:37.092Z,99346.40
2022-12-25T07:28:13.855Z,99350.00
2022-12-25T07:30:50.461Z,99357.20
2022-12-25T07:33:27.148Z,99366.20
2022-12-25T07:36:05.431Z,99367.40
2022-12-25T07:38:42.462Z,99372.00
2022-12-25T07:41:18.881Z,99386.60
2022-12-25T07:43:57.479Z,99391.80
2022-12-25T07:46:34.156Z,99396.00
2022-12-25T07:49:11.078Z,99406.60
2022-12-25T07:51:47.848Z,99409.20
2022-12-25T07:54:24.500Z,99414.60
2022-12-25T07:57:00.852Z,99407.60
2022-12-25T07:59:37.272Z,99416.60
2022-12-25T08:02:14.256Z,99412.00
2022-12-25T08:04:51.047Z,99411.60
2022-12-25T08:07:28.127Z,99416.40
2022-12-25T08:10:05.290Z,99416.80
2022-12-25T08:12:41.612Z,99419.00
2022-12-25T08:15:18.571Z,99419.60
2022-12-25T08:17:54.843Z,99415.40
2022-12-25T08:20:31.260Z,99421.00
2022-12-25T08:23:08.217Z,99413.60
2022-12-25T08:25:44.597Z,99416.80
2022-12-25T08:28:20.925Z,99414.20
2022-12-25T08:30:57.467Z,99417.60
2022-12-25T08:33:34.066Z,99421.00
2022-12-25T08:36:13.946Z,99422.60
2022-12-25T08:38:51.569Z,99413.40
2022-12-25T08:41:29.518Z,99419.80
2022-12-25T08:44:06.359Z,99417.40
2022-12-25T08:46:42.875Z,99414.40
2022-12-25T08:49:19.527Z,99414.40
2022-12-25T08:51:56.236Z,99412.20
2022-12-25T08:54:33.826Z,99404.40
2022-12-25T08:57:10.201Z,99401.00
2022-12-25T08:59:46.519Z,99400.80
2022-12-25T09:02:23.031Z,99404.80
2022-12-25T09:04:59.657Z,99400.60
2022-12-25T09:07:35.900Z,99395.80
2022-12-25T09:10:14.624Z,99390.00
2022-12-25T09:12:50.884Z,99390.00
2022-12-25T09:15:27.387Z,99403.00
2022-12-25T09:18:04.048Z,99415.80
2022-12-25T09:20:40.525Z,99421.00
2022-12-25T09:23:16.824Z,99431.80
2022-12-25T09:25:53.047Z,99433.40
2022-12-25T09:28:29.620Z,99432.20
2022-12-25T09:31:06.743Z,99438.80
2022-12-25T09:33:43.184Z,99448.20
2022-12-25T09:36:21.479Z,99445.80
2022-12-25T09:38:57.946Z,99442.60
2022-12-25T09:41:40.792Z,99441.60
2022-12-25T09:44:25.373Z,99443.20
2022-12-25T09:47:08.261Z,99439.60
2022-12-25T09:49:54.526Z,99437.00
2022-12-25T09:52:43.672Z,99443.80
2022-12-25T09:55:24.404Z,99449.00
2022-12-25T09:58:09.993Z,99451.00
2022-12-25T10:00:54.223Z,99455.00
2022-12-25T10:04:09.637Z,99451.80
2022-12-25T10:07:03.192Z,99457.80
2022-12-25T10:10:07.786Z,99462.00
2022-12-25T10:13:03.005Z,99462.20
2022-12-25T10:15:53.248Z,99464.40
2022-12-25T10:19:11.765Z,99469.40
2022-12-25T10:21:49.860Z,99477.00
2022-12-25T10:24:37.833Z,99477.60
2022-12-25T10:27:28.937Z,99477.60
2022-12-25T10:30:15.716Z,99479.20
2022-12-25T10:32:54.062Z,99476.80
2022-12-25T10:35:33.073Z,99469.40
2022-12-25T10:38:18.378Z,99466.00
2022-12-25T10:41:19.112Z,99459.20
2022-12-25T10:43:58.947Z,99454.40
2022-12-25T10:46:35.602Z,99452.80
2022-12-25T10:49:22.291Z,99449.80
2022-12-25T10:51:58.770Z,99445.60
2022-12-25T10:54:37.764Z,99440.60
2022-12-25T10:57:23.138Z,99434.60
2022-12-25T11:00:01.892Z,99431.60
2022-12-25T11:02:44.092Z,99432.20
2022-12-25T11:05:31.374Z,99429.20
2022-12-25T11:08:22.288Z,99418.40
2022-12-25T11:11:06.818Z,99407.60
2022-12-25T11:13:58.489Z,99403.60
2022-12-25T11:16:40.191Z,99404.20
2022-12-25T11:19:30.088Z,99400.60
2022-12-25T11:22:19.029Z,99403.40
2022-12-25T11:24:56.566Z,99397.40
2022-12-25T11:27:34.055Z,99390.80
2022-12-25T11:30:18.254Z,99386.80
2022-12-25T11:32:59.577Z,99385.20
2022-12-25T11:35:47.820Z,99386.80
2022-12-25T11:38:24.828Z,99390.20
2022-12-25T11:41:05.943Z,99389.20
2022-12-25T11:43:50.823Z,99391.60
2022-12-25T11:46:38.681Z,99389.80
2022-12-25T11:49:22.365Z,99387.40
2022-12-25T11:52:01.551Z,99386.00
2022-12-25T11:54:49.195Z,99385.40
2022-12-25T11:57:29.186Z,99390.60
2022-12-25T12:00:15.663Z,99392.60
2022-12-25T12:03:00.430Z,99394.40
2022-12-25T12:05:49.299Z,99396.20
2022-12-25T12:08:25.868Z,99396.20
2022-12-25T12:11:20.721Z,99393.20
2022-12-25T12:14:25.315Z,99398.00
2022-12-25T12:17:02.568Z,99397.40
2022-12-25T12:19:39.276Z,99399.20
2022-12-25T12:22:26.599Z,99397.40
2022-12-25T12:25:09.488Z,99396.40
2022-12-25T12:27:47.098Z,99396.40
2022-12-25T12:30:34.792Z,99394.20
2022-12-25T12:33:21.962Z,99387.00
2022-12-25T12:35:58.830Z,99384.00
2022-12-25T12:38:36.482Z,99386.80
2022-12-25T12:41:15.443Z,99391.60
2022-12-25T12:44:00.608Z,99391.40
2022-12-25T12:46:51.475Z,99393.20
2022-12-25T12:49:32.379Z,99397.60
2022-12-25T12:52:33.020Z,99397.80
2022-12-25T12:55:13.772Z,99396.20
2022-12-25T12:58:01.934Z,99392.80
2022-12-25T13:00:54.508Z,99389.80
2022-12-25T13:03:50.452Z,99386.00
2022-12-25T13:06:40.905Z,99388.60
2022-12-25T13:09:40.521Z,99391.20
2022-12-25T13:12:21.023Z,99392.40
2022-12-25T13:14:57.499Z,99390.00
2022-12-25T13:17:34.074Z,99383.80
2022-12-25T13:20:32.414Z,99383.40
2022-12-25T13:23:28.363Z,99386.40
2022-12-25T13:26:12.848Z,99395.80
2022-12-25T13:28:50.663Z,99395.20
2022-12-25T13:31:29.636Z,99395.20
2022-12-25T13:34:21.165Z,99391.20
2022-12-25T13:36:59.479Z,99387.40
2022-12-25T13:39:40.590Z,99392.40
2022-12-25T13:42:23.713Z,99389.20
2022-12-25T13:45:06.169Z,99381.80
2022-12-25T13:47:51.424Z,99382.60
2022-12-25T13:50:35.296Z,99388.40
2022-12-25T13:53:20.332Z,99386.40
2022-12-25T13:55:59.598Z,99387.00
2022-12-25T13:58:39.525Z,99391.00
2022-12-25T14:01:21.910Z,99392.80
2022-12-25T14:03:58.778Z,99388.60
2022-12-25T14:06:35.966Z,99382.80
2022-12-25T14:09:15.704Z,99382.00
2022-12-25T14:11:56.056Z,99388.20
2022-12-25T14:14:33.176Z,99381.00
2022-12-25T14:17:11.319Z,99379.60
2022-12-25T14:19:47.873Z,99381.80
2022-12-25T14:22:27.138Z,99384.40
2022-12-25T14:25:03.580Z,99379.80
2022-12-25T14:27:39.873Z,99368.20
2022-12-25T14:30:19.950Z,99364.60
2022-12-25T14:32:59.636Z,99365.00
2022-12-25T14:35:36.251Z,99363.80
2022-12-25T14:38:24.587Z,99371.20
2022-12-25T14:41:33.718Z,99375.00
2022-12-25T14:44:38.874Z,99386.80
2022-12-25T14:47:23.878Z,99392.00
2022-12-25T14:50:00.626Z,99392.00
2022-12-25T14:52:46.644Z,99390.40
2022-12-25T14:55:28.875Z,99384.00
2022-12-25T14:58:22.021Z,99379.20
2022-12-25T15:01:04.332Z,99380.00
2022-12-25T15:03:41.885Z,99377.40
2022-12-25T15:06:25.980Z,99376.20
2022-12-25T15:09:06.578Z,99370.40
2022-12-25T15:11:43.421Z,99369.40
2022-12-25T15:14:20.325Z,99363.20
2022-12-25T15:17:01.462Z,99362.20
2022-12-25T15:19:42.511Z,99364.40
2022-12-25T15:22:22.961Z,99373.20
2022-12-25T15:25:02.485Z,99379.60
2022-12-25T15:27:39.272Z,99388.40
2022-12-25T15:30:17.950Z,99393.00
2022-12-25T15:32:54.467Z,99392.40
2022-12-25T15:35:33.378Z,99395.60
2022-12-25T15:38:09.649Z,99388.40
2022-12-25T15:40:48.374Z,99387.60
2022-12-25T15:43:41.407Z,99394.80
2022-12-25T15:46:19.424Z,99397.40
2022-12-25T15:48:56.105Z,99393.00
2022-12-25T15:51:32.977Z,99398.60
2022-12-25T15:54:11.275Z,99401.40
2022-12-25T15:56:52.767Z,99403.60
2022-12-25T15:59:29.441Z,99402.00
2022-12-25T16:02:14.702Z,99400.60
2022-12-25T16:04:55.169Z,99401.80
2022-12-25T16:07:33.789Z,99403.40
2022-12-25T16:10:17.747Z,99395.00
2022-12-25T16:12:54.095Z,99377.80
2022-12-25T16:15:30.559Z,99370.40
2022-12-25T16:18:07.723Z,99373.60
2022-12-25T16:20:44.208Z,99384.80
2022-12-25T16:23:20.528Z,99377.20
2022-12-25T16:25:56.949Z,99363.60
2022-12-25T16:28:33.403Z,99361.60
2022-12-25T16:31:10.290Z,99362.60
2022-12-25T16:33:46.652Z,99361.20
2022-12-25T16:36:26.906Z,99353.60
2022-12-25T16:39:04.764Z,99343.00
2022-12-25T16:41:41.181Z,99341.00
2022-12-25T16:44:17.796Z,99337.60
2022-12-25T16:46:54.460Z,99331.40
2022-12-25T16:49:31.121Z,99328.20
2022-12-25T16:52:07.934Z,99328.40
2022-12-25T16:54:46.510Z,99332.00
2022-12-25T16:57:23.058Z,99346.20
2022-12-25T17:00:00.182Z,99354.80
2022-12-25T17:02:36.924Z,99360.00
2022-12-25T17:05:15.232Z,99357.60
2022-12-25T17:07:51.898Z,99359.00
2022-12-25T17:10:28.368Z,99355.40
2022-12-25T17:13:04.603Z,99346.20
2022-12-25T17:15:45.260Z,99335.80
2022-12-25T17:18:26.765Z,99326.00
2022-12-25T17:21:03.139Z,99335.20
2022-12-25T17:23:41.249Z,99339.40
2022-12-25T17:26:17.692Z,99325.80
2022-12-25T17:28:53.930Z,99322.40
2022-12-25T17:31:31.066Z,99320.60
2022-12-25T17:34:09.752Z,99325.00
2022-12-25T17:36:46.247Z,99324.60
2022-12-25T17:39:22.722Z,99319.00
2022-12-25T17:41:59.629Z,99312.60
2022-12-25T17:44:36.351Z,99312.80
2022-12-25T17:47:12.853Z,99317.40
2022-12-25T17:49:49.324Z,99317.40
2022-12-25T17:52:25.829Z,99317.40
2022-12-25T17:55:02.656Z,99305.00
2022-12-25T17:57:41.201Z,99301.20
2022-12-25T18:00:20.830Z,99290.20
2022-12-25T18:02:57.990Z,99271.60
2022-12-25T18:05:38.149Z,99271.40
2022-12-25T18:08:14.613Z,99265.60
2022-12-25T18:10:52.409Z,99257.00
2022-12-25T18:13:28.787Z,99260.20
2022-12-25T18:16:09.763Z,99262.00
2022-12-25T18:18:52.170Z,99268.00
2022-12-25T18:21:31.214Z,99270.40
2022-12-25T18:24:12.346Z,99275.00
2022-12-25T18:26:52.223Z,99276.60
2022-12-25T18:29:29.358Z,99281.00
2022-12-25T18:32:06.286Z,99285.40
2022-12-25T18:34:42.734Z,99281.20
2022-12-25T18:37:19.201Z,99281.80
2022-12-25T18:39:55.721Z,99287.20
2022-12-25T18:42:41.070Z,99282.00
2022-12-25T18:45:21.053Z,99280.20
2022-12-25T18:47:57.473Z,99284.20
2022-12-25T18:50:36.183Z,99288.00
2022-12-25T18:53:12.643Z,99290.00
2022-12-25T18:55:49.118Z,99287.60
2022-12-25T18:58:26.337Z,99281.60
2022-12-25T19:01:02.800Z,99269.20
2022-12-25T19:03:39.499Z,99277.00
2022-12-25T19:06:22.744Z,99288.00
2022-12-25T19:08:59.787Z,99281.20
2022-12-25T19:11:42.087Z,99275.00
2022-12-25T19:14:22.431Z,99279.40
2022-12-25T19:16:59.185Z,99276.80
2022-12-25T19:19:35.589Z,99273.00
2022-12-25T19:22:13.189Z,99266.00
2022-12-25T19:24:49.704Z,99265.40
2022-12-25T19:27:26.077Z,99263.20
2022-12-25T19:30:02.550Z,99265.00
2022-12-25T19:32:39.073Z,99259.40
2022-12-25T19:35:15.835Z,99264.80
2022-12-25T19:37:52.361Z,99260.40
2022-12-25T19:40:28.930Z,99260.40
2022-12-25T19:43:05.610Z,99262.80
2022-12-25T19:45:42.101Z,99266.20
2022-12-25T19:48:19.157Z,99264.80
2022-12-25T19:50:55.766Z,99263.80
2022-12-25T19:53:34.007Z,99260.80
2022-12-25T19:56:10.964Z,99252.40
2022-12-25T19:58:48.184Z,99251.00
2022-12-25T20:01:29.695Z,99253.80
2022-12-25T20:04:08.116Z,99254.40
2022-12-25T20:06:46.086Z,99251.40
2022-12-25T20:09:24.473Z,99239.80
2022-12-25T20:12:00.874Z,99241.80
2022-12-25T20:14:37.345Z,99233.20
2022-12-25T20:17:16.045Z,99220.80
2022-12-25T20:19:52.860Z,99218.00
2022-12-25T20:22:29.617Z,99209.60
2022-12-25T20:25:09.270Z,99208.40
2022-12-25T20:27:45.916Z,99201.20
2022-12-25T20:30:22.696Z,99209.00
2022-12-25T20:32:59.071Z,99210.40
2022-12-25T20:35:35.535Z,99210.40
2022-12-25T20:38:12.113Z,99208.20
2022-12-25T20:41:25.078Z,99214.80
2022-12-25T20:43:48.080Z,99209.80
2022-12-25T20:46:24.662Z,99200.80
2022-12-25T20:49:02.268Z,99197.40
2022-12-25T20:51:39.238Z,99194.40
2022-12-25T20:54:15.480Z,99189.00
2022-12-25T20:56:53.157Z,99184.00
2022-12-25T20:59:35.223Z,99187.60
2022-12-25T21:02:34.569Z,99187.00
2022-12-25T21:05:14.200Z,99186.80
2022-12-25T21:07:50.570Z,99182.40
2022-12-25T21:10:26.971Z,99175.40
2022-12-25T21:13:03.444Z,99176.60
2022-12-25T21:15:43.898Z,99169.80
2022-12-25T21:18:23.304Z,99162.60
2022-12-25T21:21:05.821Z,99156.80
2022-12-25T21:23:44.132Z,99150.60
2022-12-25T21:26:26.087Z,99146.40
2022-12-25T21:29:03.693Z,99148.80
2022-12-25T21:31:53.887Z,99146.80
2022-12-25T21:34:32.308Z,99145.00
2022-12-25T21:37:11.016Z,99139.00
2022-12-25T21:39:49.937Z,99126.60
2022-12-25T21:42:26.460Z,99125.40
2022-12-25T21:45:02.880Z,99131.20
2022-12-25T21:48:02.294Z,99134.80
2022-12-25T21:50:53.591Z,99134.40
2022-12-25T21:53:29.942Z,99130.60
2022-12-25T21:56:06.872Z,99126.80
2022-12-25T21:58:43.290Z,99115.00
2022-12-25T22:01:20.044Z,99096.40
2022-12-25T22:03:56.791Z,99094.80
2022-12-25T22:06:51.027Z,99097.80
2022-12-25T22:09:27.905Z,99098.00
2022-12-25T22:12:22.599Z,99094.80
2022-12-25T22:15:03.012Z,99105.20
2022-12-25T22:18:00.791Z,99114.80
2022-12-25T22:20:41.863Z,99115.60
2022-12-25T22:23:19.593Z,99113.60
2022-12-25T22:25:55.997Z,99110.40
2022-12-25T22:28:32.495Z,99113.20
2022-12-25T22:31:11.456Z,99112.80
2022-12-25T22:33:47.711Z,99095.60
2022-12-25T22:36:24.356Z,99085.60
2022-12-25T22:39:00.833Z,99091.80
2022-12-25T22:41:37.502Z,99093.20
2022-12-25T22:44:17.536Z,99096.20
2022-12-25T22:46:55.043Z,99085.20
2022-12-25T22:49:32.442Z,99071.00
2022-12-25T22:52:09.943Z,99061.40
2022-12-25T22:54:46.593Z,99053.00
2022-12-25T22:57:22.817Z,99052.60
2022-12-25T22:59:59.438Z,99048.20
2022-12-25T23:02:36.371Z,99051.40
2022-12-25T23:05:14.032Z,99050.80
2022-12-25T23:07:50.574Z,99049.20
2022-12-25T23:10:27.965Z,99049.80
2022-12-25T23:13:21.734Z,99047.40
2022-12-25T23:15:58.146Z,99033.20
2022-12-25T23:18:52.374Z,99036.40
2022-12-25T23:21:48.287Z,99034.20
2022-12-25T23:24:42.575Z,99035.80
2022-12-25T23:27:18.924Z,99029.20
2022-12-25T23:29:55.281Z,99021.20
2022-12-25T23:32:31.750Z,99024.20
2022-12-25T23:35:10.170Z,99026.80
2022-12-25T23:37:46.773Z,99025.60
2022-12-25T23:40:23.636Z,99028.20
2022-12-25T23:42:59.906Z,99020.60
2022-12-25T23:45:36.228Z,99018.20
2022-12-25T23:48:12.926Z,99015.80
2022-12-25T23:50:49.282Z,99026.20
2022-12-25T23:53:25.636Z,99017.20
2022-12-25T23:56:02.665Z,99015.40
2022-12-25T23:58:39.065Z,99011.00
